createdAt,value
2019-03-15T00:00:18.473Z,0.00
2019-03-15T00:01:18.460Z,0.00
2019-03-15T00:02:18.509Z,0.00
2019-03-15T00:03:18.582Z,0.00
2019-03-15T00:04:18.607Z,0.00
2019-03-15T00:05:18.650Z,0.00
2019-03-15T00:06:18.703Z,0.00
2019-03-15T00:07:18.770Z,0.00
2019-03-15T00:08:18.784Z,0.00
2019-03-15T00:09:18.848Z,0.00
2019-03-15T00:10:18.887Z,0.00
2019-03-15T00:11:18.922Z,0.00
2019-03-15T00:12:18.986Z,0.00
2019-03-15T00:13:19.019Z,0.00
2019-03-15T00:14:19.060Z,0.00
2019-03-15T00:15:19.127Z,0.00
2019-03-15T00:16:19.167Z,0.00
2019-03-15T00:17:19.201Z,0.00
2019-03-15T00:18:19.267Z,0.00
2019-03-15T00:19:19.282Z,0.00
2019-03-15T00:20:19.349Z,0.00
2019-03-15T00:21:19.394Z,0.00
2019-03-15T00:22:19.446Z,0.00
2019-03-15T00:23:19.481Z,0.00
2019-03-15T00:24:19.516Z,0.00
2019-03-15T00:25:19.614Z,0.00
2019-03-15T00:26:19.634Z,0.00
2019-03-15T00:27:19.670Z,0.00
2019-03-15T00:28:19.712Z,0.00
2019-03-15T00:29:19.745Z,0.00
2019-03-15T00:30:19.798Z,0.00
2019-03-15T00:31:19.880Z,0.00
2019-03-15T00:32:19.898Z,0.00
2019-03-15T00:33:19.937Z,0.00
2019-03-15T00:34:19.990Z,0.00
2019-03-15T00:35:20.047Z,0.00
2019-03-15T00:36:20.077Z,0.00
2019-03-15T00:37:20.121Z,0.00
2019-03-15T00:38:20.163Z,0.00
2019-03-15T00:39:20.258Z,0.00
2019-03-15T00:40:20.335Z,0.00
2019-03-15T00:41:20.314Z,0.00
2019-03-15T00:42:20.360Z,0.00
2019-03-15T00:43:20.432Z,0.00
2019-03-15T00:44:20.470Z,0.00
2019-03-15T00:45:20.564Z,0.00
2019-03-15T00:46:20.545Z,0.00
2019-03-15T00:47:20.578Z,0.00
2019-03-15T00:48:20.642Z,0.00
2019-03-15T00:49:21.597Z,0.00
2019-03-15T00:50:20.735Z,0.00
2019-03-15T00:51:20.782Z,0.00
2019-03-15T00:52:20.816Z,0.00
2019-03-15T00:53:20.860Z,0.00
2019-03-15T00:54:20.929Z,0.00
2019-03-15T00:55:20.973Z,0.00
2019-03-15T00:56:21.000Z,0.00
2019-03-15T00:57:21.042Z,0.00
2019-03-15T00:58:21.100Z,0.00
2019-03-15T00:59:21.141Z,0.00
2019-03-15T01:00:21.238Z,0.00
2019-03-15T01:01:21.240Z,0.00
2019-03-15T01:02:21.268Z,0.00
2019-03-15T01:03:21.313Z,0.00
2019-03-15T01:04:21.366Z,0.00
2019-03-15T01:05:21.420Z,0.00
2019-03-15T01:06:21.457Z,0.00
2019-03-15T01:07:21.502Z,0.00
2019-03-15T01:08:21.537Z,0.00
2019-03-15T01:09:21.585Z,0.00
2019-03-15T01:10:21.647Z,0.00
2019-03-15T01:11:21.682Z,0.00
2019-03-15T01:12:21.746Z,0.00
2019-03-15T01:13:21.774Z,0.00
2019-03-15T01:14:21.807Z,0.00
2019-03-15T01:15:21.869Z,0.00
2019-03-15T01:16:21.917Z,0.00
2019-03-15T01:17:21.957Z,0.00
2019-03-15T01:18:21.987Z,0.00
2019-03-15T01:19:22.043Z,0.00
2019-03-15T01:20:22.142Z,0.00
2019-03-15T01:21:22.128Z,0.00
2019-03-15T01:22:22.179Z,0.00
2019-03-15T01:23:22.226Z,0.00
2019-03-15T01:24:22.266Z,0.00
2019-03-15T01:25:22.325Z,0.00
2019-03-15T01:26:22.358Z,0.00
2019-03-15T01:27:22.411Z,0.00
2019-03-15T01:28:22.478Z,0.00
2019-03-15T01:29:22.487Z,0.00
2019-03-15T01:30:22.529Z,0.00
2019-03-15T01:31:22.581Z,0.00
2019-03-15T01:32:22.629Z,0.00
2019-03-15T01:33:22.673Z,0.00
2019-03-15T01:34:22.710Z,0.00
2019-03-15T01:35:22.755Z,0.00
2019-03-15T01:36:22.808Z,0.00
2019-03-15T01:37:22.846Z,0.00
2019-03-15T01:38:22.920Z,0.00
2019-03-15T01:39:22.965Z,0.00
2019-03-15T01:40:22.986Z,0.00
2019-03-15T01:41:23.034Z,0.00
2019-03-15T01:42:23.078Z,0.00
2019-03-15T01:43:23.133Z,0.00
2019-03-15T01:44:23.173Z,0.00
2019-03-15T01:45:23.213Z,0.00
2019-03-15T01:46:23.270Z,0.00
2019-03-15T01:47:24.047Z,0.00
2019-03-15T01:48:23.389Z,0.00
2019-03-15T01:49:23.380Z,0.00
2019-03-15T01:50:24.422Z,0.00
2019-03-15T01:51:23.482Z,0.00
2019-03-15T01:52:23.548Z,0.00
2019-03-15T01:53:23.732Z,0.00
2019-03-15T01:54:23.649Z,0.00
2019-03-15T01:55:23.664Z,0.00
2019-03-15T01:56:23.743Z,0.00
2019-03-15T01:57:23.827Z,0.00
2019-03-15T01:58:23.792Z,0.00
2019-03-15T01:59:23.842Z,0.00
2019-03-15T02:00:23.879Z,0.00
2019-03-15T02:01:23.937Z,0.00
2019-03-15T02:02:23.969Z,0.00
2019-03-15T02:03:24.051Z,0.00
2019-03-15T02:04:24.066Z,0.00
2019-03-15T02:05:24.162Z,0.00
2019-03-15T02:06:24.140Z,0.00
2019-03-15T02:07:24.245Z,0.00
2019-03-15T02:08:24.255Z,0.00
2019-03-15T02:09:24.290Z,0.00
2019-03-15T02:10:24.328Z,0.00
2019-03-15T02:11:24.374Z,0.00
2019-03-15T02:12:24.419Z,0.00
2019-03-15T02:13:24.466Z,0.00
2019-03-15T02:14:24.512Z,0.00
2019-03-15T02:15:24.572Z,0.00
2019-03-15T02:16:24.598Z,0.00
2019-03-15T02:17:24.683Z,0.00
2019-03-15T02:18:24.690Z,0.00
2019-03-15T02:19:24.756Z,0.00
2019-03-15T02:20:24.779Z,0.00
2019-03-15T02:21:24.839Z,0.00
2019-03-15T02:22:24.886Z,0.00
2019-03-15T02:23:24.917Z,0.00
2019-03-15T02:24:24.964Z,0.00
2019-03-15T02:25:25.021Z,0.00
2019-03-15T02:26:25.058Z,0.00
2019-03-15T02:27:25.085Z,0.00
2019-03-15T02:28:25.136Z,0.00
2019-03-15T02:29:25.213Z,0.00
2019-03-15T02:30:25.229Z,0.00
2019-03-15T02:31:25.268Z,0.00
2019-03-15T02:32:25.319Z,0.00
2019-03-15T02:33:25.355Z,0.00
2019-03-15T02:34:25.485Z,0.00
2019-03-15T02:35:25.442Z,0.00
2019-03-15T02:36:25.492Z,0.00
2019-03-15T02:37:25.546Z,0.00
2019-03-15T02:38:27.069Z,0.00
2019-03-15T02:39:25.637Z,0.00
2019-03-15T02:40:25.666Z,0.00
2019-03-15T02:41:25.731Z,0.00
2019-03-15T02:42:26.383Z,0.00
2019-03-15T02:43:25.819Z,0.00
2019-03-15T02:44:25.915Z,0.00
2019-03-15T02:45:25.913Z,0.00
2019-03-15T02:46:26.064Z,0.00
2019-03-15T02:47:25.999Z,0.00
2019-03-15T02:48:26.042Z,0.00
2019-03-15T02:49:26.095Z,0.00
2019-03-15T02:50:26.147Z,0.00
2019-03-15T02:51:26.158Z,0.00
2019-03-15T02:52:26.206Z,0.00
2019-03-15T02:53:26.295Z,0.00
2019-03-15T02:54:27.314Z,0.00
2019-03-15T02:55:26.429Z,0.00
2019-03-15T02:56:26.402Z,0.00
2019-03-15T02:57:26.466Z,0.00
2019-03-15T02:58:27.970Z,0.00
2019-03-15T02:59:26.550Z,0.00
2019-03-15T03:00:26.583Z,0.00
2019-03-15T03:01:26.603Z,0.00
2019-03-15T03:02:27.665Z,0.00
2019-03-15T03:03:26.705Z,0.00
2019-03-15T03:04:26.742Z,0.00
2019-03-15T03:05:26.829Z,0.00
2019-03-15T03:06:28.041Z,0.00
2019-03-15T03:07:26.879Z,0.00
2019-03-15T03:08:26.966Z,0.00
2019-03-15T03:09:26.980Z,0.00
2019-03-15T03:10:27.215Z,0.00
2019-03-15T03:11:27.065Z,0.00
2019-03-15T03:12:27.107Z,0.00
2019-03-15T03:13:27.214Z,0.00
2019-03-15T03:14:27.193Z,0.00
2019-03-15T03:15:27.234Z,0.00
2019-03-15T03:16:27.310Z,0.00
2019-03-15T03:17:27.374Z,0.00
2019-03-15T03:18:27.372Z,0.00
2019-03-15T03:19:28.179Z,0.00
2019-03-15T03:20:27.502Z,0.00
2019-03-15T03:21:27.502Z,0.00
2019-03-15T03:22:27.556Z,0.00
2019-03-15T03:23:27.662Z,0.00
2019-03-15T03:24:27.643Z,0.00
2019-03-15T03:25:27.691Z,0.00
2019-03-15T03:26:27.743Z,0.00
2019-03-15T03:27:27.797Z,0.00
2019-03-15T03:28:28.050Z,0.00
2019-03-15T03:29:27.866Z,0.00
2019-03-15T03:30:27.904Z,0.00
2019-03-15T03:31:27.994Z,0.00
2019-03-15T03:32:28.012Z,0.00
2019-03-15T03:33:28.048Z,0.00
2019-03-15T03:34:28.085Z,0.00
2019-03-15T03:35:28.134Z,0.00
2019-03-15T03:36:28.222Z,0.00
2019-03-15T03:37:28.240Z,0.00
2019-03-15T03:38:28.315Z,0.00
2019-03-15T03:39:28.312Z,0.00
2019-03-15T03:40:29.110Z,0.00
2019-03-15T03:41:28.403Z,0.00
2019-03-15T03:42:28.445Z,0.00
2019-03-15T03:43:28.489Z,0.00
2019-03-15T03:44:28.519Z,0.00
2019-03-15T03:45:28.688Z,0.00
2019-03-15T03:46:28.644Z,0.00
2019-03-15T03:47:28.687Z,0.00
2019-03-15T03:48:28.723Z,0.00
2019-03-15T03:49:28.753Z,0.00
2019-03-15T03:50:28.835Z,0.00
2019-03-15T03:51:28.835Z,0.00
2019-03-15T03:52:28.888Z,0.00
2019-03-15T03:53:28.928Z,0.00
2019-03-15T03:54:29.046Z,0.00
2019-03-15T03:55:29.092Z,0.00
2019-03-15T03:56:29.068Z,0.00
2019-03-15T03:57:29.103Z,0.00
2019-03-15T03:58:29.153Z,0.00
2019-03-15T03:59:29.213Z,0.00
2019-03-15T04:00:29.299Z,0.00
2019-03-15T04:01:29.302Z,0.00
2019-03-15T04:02:29.325Z,0.00
2019-03-15T04:03:29.390Z,0.00
2019-03-15T04:04:29.416Z,0.00
2019-03-15T04:05:29.470Z,0.00
2019-03-15T04:06:29.513Z,0.00
2019-03-15T04:07:29.556Z,0.00
2019-03-15T04:08:29.616Z,0.00
2019-03-15T04:09:29.637Z,0.00
2019-03-15T04:10:29.751Z,0.00
2019-03-15T04:11:29.743Z,0.00
2019-03-15T04:12:29.791Z,0.00
2019-03-15T04:13:29.824Z,0.00
2019-03-15T04:14:29.870Z,0.00
2019-03-15T04:15:29.966Z,0.00
2019-03-15T04:16:29.985Z,0.00
2019-03-15T04:17:30.024Z,0.00
2019-03-15T04:18:30.052Z,0.00
2019-03-15T04:19:30.114Z,0.00
2019-03-15T04:20:30.378Z,0.00
2019-03-15T04:21:30.197Z,0.00
2019-03-15T04:22:30.225Z,0.00
2019-03-15T04:23:30.297Z,0.00
2019-03-15T04:24:30.338Z,0.00
2019-03-15T04:25:30.387Z,0.00
2019-03-15T04:26:30.423Z,0.00
2019-03-15T04:27:30.459Z,0.00
2019-03-15T04:28:30.515Z,0.00
2019-03-15T04:29:30.561Z,0.00
2019-03-15T04:30:30.632Z,0.00
2019-03-15T04:31:30.659Z,0.00
2019-03-15T04:32:30.686Z,0.00
2019-03-15T04:33:30.731Z,0.00
2019-03-15T04:34:30.823Z,0.00
2019-03-15T04:35:30.811Z,0.00
2019-03-15T04:36:30.892Z,0.00
2019-03-15T04:37:30.905Z,0.00
2019-03-15T04:38:30.965Z,0.00
2019-03-15T04:39:31.010Z,0.00
2019-03-15T04:40:31.112Z,0.00
2019-03-15T04:41:31.105Z,0.00
2019-03-15T04:42:31.167Z,0.00
2019-03-15T04:43:31.204Z,0.00
2019-03-15T04:44:31.244Z,0.00
2019-03-15T04:45:31.294Z,0.00
2019-03-15T04:46:31.322Z,0.00
2019-03-15T04:47:31.449Z,0.00
2019-03-15T04:48:31.486Z,0.00
2019-03-15T04:49:31.471Z,0.00
2019-03-15T04:50:31.517Z,0.00
2019-03-15T04:51:31.541Z,0.00
2019-03-15T04:52:31.592Z,0.00
2019-03-15T04:53:31.764Z,0.00
2019-03-15T04:54:31.685Z,0.00
2019-03-15T04:55:31.784Z,0.00
2019-03-15T04:56:31.790Z,0.00
2019-03-15T04:57:31.835Z,0.00
2019-03-15T04:58:31.940Z,0.00
2019-03-15T04:59:31.925Z,0.00
2019-03-15T05:00:31.971Z,0.00
2019-03-15T05:01:32.017Z,0.00
2019-03-15T05:02:32.072Z,0.00
2019-03-15T05:03:32.101Z,0.00
2019-03-15T05:04:32.153Z,0.00
2019-03-15T05:05:32.300Z,0.00
2019-03-15T05:06:32.236Z,0.00
2019-03-15T05:07:32.277Z,0.00
2019-03-15T05:08:32.345Z,0.00
2019-03-15T05:09:32.387Z,0.00
2019-03-15T05:10:32.413Z,0.00
2019-03-15T05:11:32.496Z,0.00
2019-03-15T05:12:32.517Z,0.00
2019-03-15T05:13:32.576Z,0.00
2019-03-15T05:14:32.599Z,0.00
2019-03-15T05:15:32.666Z,0.00
2019-03-15T05:16:32.718Z,0.00
2019-03-15T05:17:32.740Z,0.00
2019-03-15T05:18:32.774Z,0.00
2019-03-15T05:19:32.855Z,0.00
2019-03-15T05:20:32.931Z,0.00
2019-03-15T05:21:32.935Z,0.00
2019-03-15T05:22:33.018Z,0.00
2019-03-15T05:23:33.016Z,0.00
2019-03-15T05:24:33.078Z,0.00
2019-03-15T05:25:33.110Z,0.00
2019-03-15T05:26:33.167Z,0.00
2019-03-15T05:27:33.230Z,0.00
2019-03-15T05:28:33.258Z,0.00
2019-03-15T05:29:33.384Z,0.00
2019-03-15T05:30:33.346Z,0.00
2019-03-15T05:31:33.376Z,0.00
2019-03-15T05:32:33.485Z,0.00
2019-03-15T05:33:33.482Z,0.00
2019-03-15T05:34:33.527Z,0.00
2019-03-15T05:35:33.560Z,0.00
2019-03-15T05:36:33.683Z,0.00
2019-03-15T05:37:33.662Z,0.00
2019-03-15T05:38:35.042Z,0.00
2019-03-15T05:39:33.756Z,0.00
2019-03-15T05:40:33.803Z,0.00
2019-03-15T05:41:33.851Z,0.00
2019-03-15T05:42:33.900Z,0.00
2019-03-15T05:43:33.926Z,0.00
2019-03-15T05:44:33.995Z,0.00
2019-03-15T05:45:34.019Z,0.00
2019-03-15T05:46:34.055Z,0.00
2019-03-15T05:47:34.136Z,0.00
2019-03-15T05:48:34.147Z,0.00
2019-03-15T05:49:34.239Z,0.00
2019-03-15T05:50:34.285Z,0.00
2019-03-15T05:51:34.292Z,0.00
2019-03-15T05:52:34.466Z,0.00
2019-03-15T05:53:34.406Z,0.00
2019-03-15T05:54:34.432Z,0.00
2019-03-15T05:55:34.508Z,0.00
2019-03-15T05:56:34.544Z,0.00
2019-03-15T05:57:34.571Z,0.00
2019-03-15T05:58:34.625Z,0.00
2019-03-15T05:59:34.670Z,0.00
2019-03-15T06:00:34.703Z,0.00
2019-03-15T06:01:34.809Z,0.00
2019-03-15T06:02:34.804Z,0.00
2019-03-15T06:03:47.506Z,0.00
2019-03-15T06:04:34.910Z,0.00
2019-03-15T06:05:34.951Z,0.00
2019-03-15T06:06:34.990Z,0.00
2019-03-15T06:07:35.149Z,0.00
2019-03-15T06:08:35.090Z,0.00
2019-03-15T06:09:35.138Z,0.00
2019-03-15T06:10:35.165Z,0.00
2019-03-15T06:11:35.232Z,0.00
2019-03-15T06:12:35.261Z,0.00
2019-03-15T06:13:35.305Z,0.00
2019-03-15T06:14:35.426Z,0.00
2019-03-15T06:15:35.418Z,0.00
2019-03-15T06:16:35.448Z,0.00
2019-03-15T06:17:35.501Z,0.00
2019-03-15T06:18:35.614Z,0.00
2019-03-15T06:19:35.681Z,0.00
2019-03-15T06:20:35.621Z,0.00
2019-03-15T06:21:35.673Z,0.00
2019-03-15T06:22:35.712Z,0.00
2019-03-15T06:23:35.816Z,0.00
2019-03-15T06:24:35.809Z,0.00
2019-03-15T06:25:35.857Z,0.00
2019-03-15T06:26:35.956Z,0.00
2019-03-15T06:27:35.998Z,0.00
2019-03-15T06:28:36.000Z,0.00
2019-03-15T06:29:36.094Z,0.00
2019-03-15T06:30:36.101Z,0.00
2019-03-15T06:31:36.192Z,0.00
2019-03-15T06:32:36.330Z,0.00
2019-03-15T06:33:36.297Z,0.00
2019-03-15T06:34:39.338Z,0.00
2019-03-15T06:35:36.297Z,0.00
2019-03-15T06:36:36.361Z,0.00
2019-03-15T06:37:36.426Z,0.00
2019-03-15T06:38:36.461Z,0.00
2019-03-15T06:39:36.990Z,0.00
2019-03-15T06:40:36.549Z,0.00
2019-03-15T06:41:36.617Z,0.00
2019-03-15T06:42:36.746Z,0.00
2019-03-15T06:43:36.672Z,0.00
2019-03-15T06:44:37.718Z,0.00
2019-03-15T06:45:36.784Z,0.00
2019-03-15T06:46:36.812Z,0.00
2019-03-15T06:47:36.868Z,0.00
2019-03-15T06:48:36.969Z,0.00
2019-03-15T06:49:36.956Z,0.00
2019-03-15T06:50:37.009Z,0.00
2019-03-15T06:51:37.065Z,0.00
2019-03-15T06:52:37.211Z,0.00
2019-03-15T06:53:37.158Z,0.00
2019-03-15T06:54:37.189Z,0.00
2019-03-15T06:55:37.241Z,0.00
2019-03-15T06:56:37.269Z,0.00
2019-03-15T06:57:37.374Z,0.00
2019-03-15T06:58:37.408Z,0.00
2019-03-15T06:59:37.463Z,0.00
2019-03-15T07:00:37.455Z,0.00
2019-03-15T07:01:37.513Z,0.00
2019-03-15T07:02:37.538Z,0.00
2019-03-15T07:03:37.594Z,0.00
2019-03-15T07:04:37.799Z,0.00
2019-03-15T07:05:37.683Z,0.00
2019-03-15T07:06:37.729Z,0.00
2019-03-15T07:07:37.806Z,0.00
2019-03-15T07:08:37.870Z,0.00
2019-03-15T07:09:38.394Z,0.00
2019-03-15T07:10:37.935Z,0.00
2019-03-15T07:11:38.014Z,0.00
2019-03-15T07:12:40.186Z,0.00
2019-03-15T07:13:38.053Z,0.00
2019-03-15T07:14:38.092Z,0.00
2019-03-15T07:15:38.136Z,0.00
2019-03-15T07:16:38.471Z,0.00
2019-03-15T07:17:38.226Z,0.00
2019-03-15T07:18:38.335Z,0.00
2019-03-15T07:19:38.388Z,0.00
2019-03-15T07:20:38.380Z,0.00
2019-03-15T07:21:38.397Z,0.00
2019-03-15T07:22:38.444Z,0.00
2019-03-15T07:23:38.512Z,0.00
2019-03-15T07:24:38.551Z,0.00
2019-03-15T07:25:38.600Z,0.00
2019-03-15T07:26:38.653Z,0.00
2019-03-15T07:27:42.015Z,0.00
2019-03-15T07:28:38.832Z,0.00
2019-03-15T07:29:38.817Z,0.00
2019-03-15T07:30:38.825Z,0.00
2019-03-15T07:31:38.904Z,0.00
2019-03-15T07:32:38.988Z,0.00
2019-03-15T07:33:38.974Z,0.00
2019-03-15T07:34:38.993Z,0.00
2019-03-15T07:35:39.045Z,0.00
2019-03-15T07:36:39.120Z,0.00
2019-03-15T07:37:39.168Z,0.00
2019-03-15T07:38:39.203Z,0.00
2019-03-15T07:39:39.241Z,0.00
2019-03-15T07:40:39.429Z,0.00
2019-03-15T07:41:39.482Z,0.00
2019-03-15T07:42:39.363Z,0.00
2019-03-15T07:43:39.410Z,0.00
2019-03-15T07:44:39.475Z,0.00
2019-03-15T07:45:39.495Z,0.00
2019-03-15T07:46:39.554Z,0.00
2019-03-15T07:47:39.603Z,0.00
2019-03-15T07:48:39.634Z,0.00
2019-03-15T07:49:39.678Z,0.00
2019-03-15T07:50:39.721Z,0.00
2019-03-15T07:51:39.784Z,0.00
2019-03-15T07:52:39.874Z,0.00
2019-03-15T07:53:39.880Z,0.00
2019-03-15T07:54:39.926Z,0.00
2019-03-15T07:55:39.945Z,0.00
2019-03-15T07:56:39.991Z,0.00
2019-03-15T07:57:40.036Z,0.00
2019-03-15T07:58:40.097Z,0.00
2019-03-15T07:59:40.135Z,0.00
2019-03-15T08:00:40.164Z,0.00
2019-03-15T08:01:40.215Z,0.00
2019-03-15T08:02:40.279Z,0.00
2019-03-15T08:03:40.305Z,0.00
2019-03-15T08:04:40.372Z,0.00
2019-03-15T08:05:40.427Z,0.00
2019-03-15T08:06:40.449Z,0.00
2019-03-15T08:07:45.420Z,0.00
2019-03-15T08:08:40.669Z,0.00
2019-03-15T08:09:40.594Z,0.00
2019-03-15T08:10:40.638Z,0.00
2019-03-15T08:11:40.689Z,0.00
2019-03-15T08:12:40.723Z,0.00
2019-03-15T08:13:40.857Z,0.00
2019-03-15T08:14:40.806Z,0.00
2019-03-15T08:15:40.849Z,0.00
2019-03-15T08:16:40.917Z,0.00
2019-03-15T08:17:40.939Z,0.00
2019-03-15T08:18:41.010Z,0.00
2019-03-15T08:19:41.034Z,0.00
2019-03-15T08:20:41.085Z,0.00
2019-03-15T08:21:41.132Z,0.00
2019-03-15T08:22:41.179Z,0.00
2019-03-15T08:23:41.250Z,0.00
2019-03-15T08:24:50.990Z,0.00
2019-03-15T08:25:41.326Z,0.00
2019-03-15T08:26:41.365Z,0.00
2019-03-15T08:27:41.417Z,0.00
2019-03-15T08:28:41.468Z,0.00
2019-03-15T08:29:41.491Z,0.00
2019-03-15T08:30:41.537Z,0.00
2019-03-15T08:31:41.594Z,0.00
2019-03-15T08:32:43.325Z,0.00
2019-03-15T08:33:41.673Z,0.00
2019-03-15T08:34:41.717Z,0.00
2019-03-15T08:35:41.772Z,0.00
2019-03-15T08:36:41.812Z,0.00
2019-03-15T08:37:41.868Z,0.00
2019-03-15T08:38:47.605Z,0.00
2019-03-15T08:39:41.964Z,0.00
2019-03-15T08:40:42.196Z,0.00
2019-03-15T08:41:42.054Z,0.00
2019-03-15T08:42:42.075Z,0.00
2019-03-15T08:43:42.154Z,0.00
2019-03-15T08:44:42.185Z,0.00
2019-03-15T08:45:42.245Z,0.00
2019-03-15T08:46:42.297Z,0.00
2019-03-15T08:47:42.331Z,0.00
2019-03-15T08:48:42.382Z,0.00
2019-03-15T08:49:42.420Z,0.00
2019-03-15T08:50:42.450Z,0.00
2019-03-15T08:51:42.547Z,0.00
2019-03-15T08:52:42.590Z,0.00
2019-03-15T08:53:42.674Z,0.00
2019-03-15T08:54:42.645Z,0.00
2019-03-15T08:55:42.709Z,0.00
2019-03-15T08:56:42.743Z,0.00
2019-03-15T08:57:42.763Z,0.00
2019-03-15T08:58:42.856Z,0.00
2019-03-15T08:59:52.963Z,0.00
2019-03-15T09:00:42.919Z,0.00
2019-03-15T09:01:42.960Z,0.00
2019-03-15T09:02:43.020Z,0.00
2019-03-15T09:03:43.067Z,0.00
2019-03-15T09:04:43.085Z,0.00
2019-03-15T09:05:43.155Z,0.00
2019-03-15T09:06:43.191Z,0.00
2019-03-15T09:07:43.256Z,0.00
2019-03-15T09:08:43.395Z,0.00
2019-03-15T09:09:43.336Z,5.63
2019-03-15T09:10:43.369Z,5.63
2019-03-15T09:11:43.415Z,5.63
2019-03-15T09:12:43.524Z,5.63
2019-03-15T09:13:43.563Z,5.63
2019-03-15T09:14:43.583Z,5.63
2019-03-15T09:15:43.641Z,11.25
2019-03-15T09:16:43.663Z,11.25
2019-03-15T09:17:43.729Z,11.25
2019-03-15T09:18:43.750Z,11.25
2019-03-15T09:19:43.814Z,11.25
2019-03-15T09:20:43.841Z,11.25
2019-03-15T09:21:43.930Z,11.25
2019-03-15T09:22:43.979Z,11.25
2019-03-15T09:23:44.009Z,16.88
2019-03-15T09:24:44.032Z,16.88
2019-03-15T09:25:44.078Z,16.88
2019-03-15T09:26:44.116Z,16.88
2019-03-15T09:27:45.613Z,22.50
2019-03-15T09:28:44.214Z,22.50
2019-03-15T09:29:44.253Z,28.13
2019-03-15T09:30:44.293Z,28.13
2019-03-15T09:31:48.074Z,28.13
2019-03-15T09:32:44.411Z,33.75
2019-03-15T09:33:44.443Z,33.75
2019-03-15T09:34:44.494Z,33.75
2019-03-15T09:35:44.575Z,39.38
2019-03-15T09:36:49.826Z,45.00
2019-03-15T09:37:47.290Z,45.00
2019-03-15T09:38:44.682Z,50.63
2019-03-15T09:39:44.727Z,50.63
2019-03-15T09:40:44.773Z,50.63
2019-03-15T09:41:44.823Z,50.63
2019-03-15T09:42:45.023Z,56.25
2019-03-15T09:43:45.537Z,67.50
2019-03-15T09:44:44.974Z,73.13
2019-03-15T09:45:44.983Z,73.13
2019-03-15T09:46:45.200Z,78.75
2019-03-15T09:47:45.086Z,84.38
2019-03-15T09:48:45.140Z,90.00
2019-03-15T09:49:45.198Z,95.63
2019-03-15T09:50:51.300Z,101.25
2019-03-15T09:51:45.284Z,101.25
2019-03-15T09:52:45.403Z,106.88
2019-03-15T09:53:45.373Z,112.50
2019-03-15T09:54:45.418Z,118.13
2019-03-15T09:55:45.471Z,118.13
2019-03-15T09:56:45.524Z,118.13
2019-03-15T09:57:45.605Z,118.13
2019-03-15T09:58:45.621Z,123.75
2019-03-15T09:59:45.657Z,129.38
2019-03-15T10:00:45.706Z,129.38
2019-03-15T10:01:45.765Z,129.38
2019-03-15T10:02:45.804Z,129.38
2019-03-15T10:03:45.837Z,140.63
2019-03-15T10:04:45.912Z,146.25
2019-03-15T10:05:45.945Z,151.88
2019-03-15T10:06:45.976Z,168.75
2019-03-15T10:07:46.082Z,185.63
2019-03-15T10:08:46.087Z,185.63
2019-03-15T10:09:46.501Z,180.00
2019-03-15T10:10:48.950Z,168.75
2019-03-15T10:11:46.198Z,163.13
2019-03-15T10:12:46.334Z,163.13
2019-03-15T10:13:46.325Z,168.75
2019-03-15T10:14:46.359Z,185.63
2019-03-15T10:15:46.558Z,208.13
2019-03-15T10:16:46.448Z,247.50
2019-03-15T10:17:46.498Z,303.75
2019-03-15T10:18:46.563Z,450.00
2019-03-15T10:19:46.604Z,545.63
2019-03-15T10:20:46.662Z,534.38
2019-03-15T10:21:46.719Z,568.13
2019-03-15T10:23:04.167Z,495.00
2019-03-15T10:23:46.797Z,517.50
2019-03-15T10:24:46.908Z,568.13
2019-03-15T10:25:51.004Z,579.38
2019-03-15T10:26:46.947Z,556.88
2019-03-15T10:27:46.979Z,511.88
2019-03-15T10:28:47.077Z,483.75
2019-03-15T10:29:47.086Z,534.38
2019-03-15T10:30:47.160Z,691.88
2019-03-15T10:31:47.186Z,613.13
2019-03-15T10:32:47.220Z,573.75
2019-03-15T10:33:50.715Z,495.00
2019-03-15T10:34:47.332Z,416.25
2019-03-15T10:35:47.397Z,410.63
2019-03-15T10:36:47.447Z,405.00
2019-03-15T10:37:47.495Z,433.13
2019-03-15T10:38:47.528Z,635.63
2019-03-15T10:39:47.597Z,793.13
2019-03-15T10:40:47.671Z,798.75
2019-03-15T10:41:47.683Z,787.50
2019-03-15T10:42:47.721Z,759.38
2019-03-15T10:43:47.760Z,534.38
2019-03-15T10:44:47.823Z,399.38
2019-03-15T10:45:47.889Z,410.63
2019-03-15T10:46:47.923Z,450.00
2019-03-15T10:47:47.974Z,466.88
2019-03-15T10:48:48.050Z,438.75
2019-03-15T10:49:48.121Z,410.63
2019-03-15T10:50:48.174Z,371.25
2019-03-15T10:51:48.239Z,360.00
2019-03-15T10:52:48.292Z,365.63
2019-03-15T10:53:48.435Z,354.38
2019-03-15T10:54:48.379Z,337.50
2019-03-15T10:55:59.683Z,303.75
2019-03-15T10:56:48.441Z,309.38
2019-03-15T10:57:48.527Z,348.75
2019-03-15T10:58:48.522Z,410.63
2019-03-15T10:59:48.593Z,489.38
2019-03-15T11:00:48.625Z,506.25
2019-03-15T11:01:48.710Z,455.63
2019-03-15T11:02:48.797Z,427.50
2019-03-15T11:03:48.861Z,405.00
2019-03-15T11:04:48.858Z,393.75
2019-03-15T11:05:48.902Z,382.50
2019-03-15T11:06:48.954Z,365.63
2019-03-15T11:07:48.977Z,343.13
2019-03-15T11:08:49.039Z,331.88
2019-03-15T11:09:49.091Z,320.63
2019-03-15T11:10:49.159Z,320.63
2019-03-15T11:11:49.186Z,326.25
2019-03-15T11:12:49.218Z,337.50
2019-03-15T11:13:49.270Z,343.13
2019-03-15T11:14:49.347Z,348.75
2019-03-15T11:15:49.369Z,360.00
2019-03-15T11:16:49.437Z,371.25
2019-03-15T11:17:49.487Z,382.50
2019-03-15T11:18:49.582Z,371.25
2019-03-15T11:19:49.600Z,360.00
2019-03-15T11:20:49.653Z,354.38
2019-03-15T11:21:49.693Z,343.13
2019-03-15T11:22:49.738Z,337.50
2019-03-15T11:23:49.787Z,348.75
2019-03-15T11:24:49.822Z,360.00
2019-03-15T11:25:49.894Z,354.38
2019-03-15T11:26:49.956Z,337.50
2019-03-15T11:27:49.984Z,331.88
2019-03-15T11:28:50.034Z,309.38
2019-03-15T11:29:50.174Z,298.13
2019-03-15T11:30:50.142Z,275.63
2019-03-15T11:31:50.213Z,258.75
2019-03-15T11:32:50.285Z,253.13
2019-03-15T11:33:50.293Z,247.50
2019-03-15T11:34:50.341Z,247.50
2019-03-15T11:35:50.373Z,247.50
2019-03-15T11:36:58.297Z,247.50
2019-03-15T11:37:50.486Z,258.75
2019-03-15T11:38:50.554Z,258.75
2019-03-15T11:39:50.599Z,253.13
2019-03-15T11:40:50.636Z,247.50
2019-03-15T11:41:50.682Z,241.88
2019-03-15T11:42:50.717Z,241.88
2019-03-15T11:43:50.774Z,241.88
2019-03-15T11:44:50.848Z,241.88
2019-03-15T11:45:50.898Z,241.88
2019-03-15T11:46:51.017Z,241.88
2019-03-15T11:48:03.487Z,247.50
2019-03-15T11:48:51.071Z,264.38
2019-03-15T11:49:51.082Z,292.50
2019-03-15T11:50:51.135Z,348.75
2019-03-15T11:51:51.203Z,348.75
2019-03-15T11:52:51.233Z,376.88
2019-03-15T11:53:51.295Z,427.50
2019-03-15T11:54:51.400Z,472.50
2019-03-15T11:55:51.373Z,511.88
2019-03-15T11:56:51.441Z,545.63
2019-03-15T11:57:51.496Z,590.63
2019-03-15T11:58:51.542Z,630.00
2019-03-15T11:59:51.684Z,652.50
2019-03-15T12:00:51.841Z,641.25
2019-03-15T12:02:03.541Z,669.38
2019-03-15T12:02:51.705Z,731.25
2019-03-15T12:03:53.210Z,1192.50
2019-03-15T12:04:51.834Z,911.25
2019-03-15T12:05:51.886Z,950.63
2019-03-15T12:06:51.921Z,1141.88
2019-03-15T12:07:51.991Z,798.75
2019-03-15T12:08:52.052Z,607.50
2019-03-15T12:09:52.079Z,596.25
2019-03-15T12:10:52.138Z,646.88
2019-03-15T12:12:52.242Z,911.25
2019-03-15T12:13:52.273Z,888.75
2019-03-15T12:14:52.358Z,793.13
2019-03-15T12:15:52.411Z,742.50
2019-03-15T12:16:52.433Z,703.13
2019-03-15T12:17:52.510Z,686.25
2019-03-15T12:18:52.553Z,703.13
2019-03-15T12:19:52.609Z,725.63
2019-03-15T12:20:52.664Z,725.63
2019-03-15T12:22:05.384Z,703.13
2019-03-15T12:22:52.771Z,675.00
2019-03-15T12:23:52.830Z,652.50
2019-03-15T12:24:52.869Z,635.63
2019-03-15T12:25:52.938Z,669.38
2019-03-15T12:26:52.959Z,686.25
2019-03-15T12:27:53.048Z,703.13
2019-03-15T12:28:53.072Z,669.38
2019-03-15T12:29:53.135Z,663.75
2019-03-15T12:30:53.192Z,618.75
2019-03-15T12:31:53.211Z,601.88
2019-03-15T12:32:53.282Z,585.00
2019-03-15T12:33:53.348Z,579.38
2019-03-15T12:34:53.380Z,579.38
2019-03-15T12:35:53.427Z,579.38
2019-03-15T12:36:53.494Z,579.38
2019-03-15T12:37:53.540Z,551.25
2019-03-15T12:38:53.583Z,523.13
2019-03-15T12:39:53.681Z,506.25
2019-03-15T12:40:53.706Z,506.25
2019-03-15T12:41:53.734Z,506.25
2019-03-15T12:42:53.818Z,489.38
2019-03-15T12:43:53.842Z,472.50
2019-03-15T12:44:53.910Z,455.63
2019-03-15T12:45:53.948Z,438.75
2019-03-15T12:46:54.012Z,427.50
2019-03-15T12:47:54.059Z,416.25
2019-03-15T12:48:54.130Z,405.00
2019-03-15T12:49:54.179Z,393.75
2019-03-15T12:50:54.215Z,393.75
2019-03-15T12:51:54.271Z,410.63
2019-03-15T12:52:54.349Z,433.13
2019-03-15T12:53:54.363Z,472.50
2019-03-15T12:54:56.016Z,500.63
2019-03-15T12:55:54.646Z,511.88
2019-03-15T12:56:54.524Z,523.13
2019-03-15T12:57:54.589Z,540.00
2019-03-15T12:58:54.618Z,556.88
2019-03-15T12:59:54.661Z,579.38
2019-03-15T13:00:54.744Z,562.50
2019-03-15T13:01:54.802Z,545.63
2019-03-15T13:02:54.842Z,517.50
2019-03-15T13:03:54.901Z,506.25
2019-03-15T13:04:54.939Z,500.63
2019-03-15T13:05:54.998Z,506.25